LiveATC.Net - Listen to live air traffic control over the Internet!
Airport/ARTCC Code
Frequency Search
(e.g., 124.400, 128.75)
Site-wide search
 


Browse Feeds
Top 50 Feeds
Coverage Map
Bad Weather Areas

LiveATC FAQ
Offer LiveATC feed
Contact LiveATC.net
Press Inquiries

LiveATC on iPhone
LiveATC on Android

Windows Phone
Windows 8/10

LiveATC Mobile
(Mobile browser)

ATC Audio Archives
Interesting Recordings

LiveATC Forums

Home Page
About LiveATC.net
Make a Donation
Terms of Use
Privacy Policy

Canadian Air Freqs

AIRMETs/SIGMETs

FAA Airport Status
Nat'l Airspace Status
Arrival Demand Charts


Server Software By:
Icecast.org
Liquidsoap

Select an area of interest:
U.S. Feeds: Class B Airports | Class C Airports | Class D/Other Airports | ARTCC (Centers)
International Feeds: Canada | Europe | Oceania | Asia | South America | North/Central America | Africa
Misc Feeds: HF Feeds
Search by ICAO/IATA airport code:   (e.g., kbos, kjfk, lax, eham, etc.)


Currently Available Live Feeds: 2588
Status Updated: Thu Apr 02 2020 03:27:38 UTC


NOTICE

Unauthorized use prohibited. See LiveATC.net Terms of Service

South America Airport Feeds

 

SABE Gnd/Twr/App (Archives)
Buenos Aires, Argentina

Feed Status: UP
Listen in your browser - HTML5 player(in browser, HTML5)
Click here to listen with your own player(launches your MP3 player)

SABE 020200Z 22007KT 9999 BKN013 OVC050 21/19 Q1013 RERA NOSIG

SABE Flight Activity (Flightaware)

Listeners: 0 out of 761 total

Aerolineas Argentinas Ops: 131.950
Aerolineas Argentinas Ops: 131.100
Aeroparque Ground: 121.900
Aeroparque Tower: 120.600
Aeroparque Tower: 118.250
Aeroparque Tower: 128.850
Aeroparque Tower: 118.850
Aeroparque Tower: 129.300
Air to Air: 123.450
Baires: 125.900
Baires: 125.300
Baires: 124.900
Cordoba South: 126.500
Ezeiza Ground: 121.750
Ezeiza North: 133.350
Ezeiza North: 124.500
Ezeiza North: 125.600
Ezeiza North: 135.500
Ezeiza South: 124.100
Ezeiza South: 125.200
LAN Ops: 131.700

SANT Tower/Apps (Archives)
Tucuman, Argentina

Feed Status: UP
Listen in your browser - HTML5 player(in browser, HTML5)
Click here to listen with your own player(launches your MP3 player)

SANT 020200Z 20008KT 2500 DZBR OVC003 23/22 Q1017

SANT Flight Activity (Flightaware)

Listeners: 0 out of 761 total

Aeroclub Tucuman: 119.000
Aerolineas Argentinas SOC Salta: 131.100
Aerolineas Argentinas SOC Tucuman: 131.950
Air To Air: 123.450
Andes Lineas Aereas: 132.000
Campo Arenal: 130.950
Catamarca Tower: 118.150
Copa Airlines: 129.400
Cordoba Centro Norte: 125.100
Cordoba Centro Sur: 126.500
Emergency/Guard: 121.500
Lan Argentina Operaciones: 131.700
Lan Peru: 131.300
Salta Tower: 128.850
Santiago del Estero Tower: 118.700
Taca Peru: 126.450
Termas de Rio Hondo: 118.200
Termas de Rio Hondo: 119.850
Tucuman Ground: 121.750
Tucuman Ground: 121.750
Tucuman Tower: 118.350
Tucuman Tower: 119.500

SASA Twr/App (Archives)
Salta, Argentina

Feed Status: UP
Listen in your browser - HTML5 player(in browser, HTML5)
Click here to listen with your own player(launches your MP3 player)

SASA 020200Z 20005KT 5000 -DZ SCT005 OVC015 21/21 Q1019

SASA Flight Activity (Flightaware)

Listeners: 0 out of 761 total

Cordoba Approach (North): 125.100
Salta Approach: 124.600
Salta Tower: 126.000
Salta Tower/Ground: 128.850

SAZN Tower (Archives)
Neuquen, Argentina

Feed Status: UP
Listen in your browser - HTML5 player(in browser, HTML5)
Click here to listen with your own player(launches your MP3 player)

SAZN 020200Z 29002KT CAVOK 11/04 Q1025

SAZN Flight Activity (Flightaware)

Listeners: 0 out of 761 total

Neuquen Tower/Approach: 119.800

SAZS Gnd/Twr/App (Archives)
Rio Negro, Argentina

Feed Status: UP
Listen in your browser - HTML5 player(in browser, HTML5)
Click here to listen with your own player(launches your MP3 player)

SAZS 020300Z 18005KT CAVOK 06/M01 Q1028

SAZS Flight Activity (Flightaware)

Listeners: 1 out of 761 total

Bariloche Ground: 118.650
Bariloche Twr/App: 119.100
Chapelco Tower/Approach: 119.600
Comodoro Rivadavia Control: 125.500
Emergency: 121.500
Ezeiza South: 125.200
Puerto Mont Radar North: 121.300
Puerto Mont Radar South: 128.300
Puerto Mont Radio: 126.900

SBBR Approach (Archives)
Brasilia, Brazil

Feed Status: UP
Listen in your browser - HTML5 player(in browser, HTML5)
Click here to listen with your own player(launches your MP3 player)

SBBR 020300Z 11003KT CAVOK 24/19 Q1019

SBBR Flight Activity (Flightaware)

Listeners: 0 out of 761 total

Brasilia Approach: 120.650
Brasilia Approach: 129.150
Brasilia Approach: 129.600
Brasilia Approach (Final): 119.200
Brasilia Departure: 119.500
Brasilia Departure: 119.700

SBBR Ground (Archives)
Brasilia, Brazil

Feed Status: UP
Listen in your browser - HTML5 player(in browser, HTML5)
Click here to listen with your own player(launches your MP3 player)

SBBR 020300Z 11003KT CAVOK 24/19 Q1019

SBBR Flight Activity (Flightaware)

Listeners: 1 out of 761 total

Brasilia Ground: 121.950
Brasilia Ground: 121.800

SBBR Tower (Archives)
Brasilia, Brazil

Feed Status: UP
Listen in your browser - HTML5 player(in browser, HTML5)
Click here to listen with your own player(launches your MP3 player)

SBBR 020300Z 11003KT CAVOK 24/19 Q1019

SBBR Flight Activity (Flightaware)

Listeners: 2 out of 761 total

Brasilia Tower: 118.100
Brasilia Tower: 181.750
Brasilia Tower: 118.450

SBBV Approach (Archives)
Boa Vista, Brazil

Feed Status: UP
Listen in your browser - HTML5 player(in browser, HTML5)
Click here to listen with your own player(launches your MP3 player)

SBBV 020300Z 11007KT CAVOK 30/20 Q1011

SBBV Flight Activity (Flightaware)

Listeners: 1 out of 761 total

Boa Vista Approach: 120.100

SBBV Tower (Archives)
Boa Vista, Brazil

Feed Status: UP
Listen in your browser - HTML5 player(in browser, HTML5)
Click here to listen with your own player(launches your MP3 player)

SBBV 020300Z 11007KT CAVOK 30/20 Q1011

SBBV Flight Activity (Flightaware)

Listeners: 1 out of 761 total

Boa Vista Tower: 118.100

SBCT Gnd/Twr/App (Archives)
Curitiba, Brazil

Feed Status: UP
Listen in your browser - HTML5 player(in browser, HTML5)
Click here to listen with your own player(launches your MP3 player)

SBCT 020200Z 07004KT 9999 OVC007 20/20 Q1019

SBCT Flight Activity (Flightaware)

Listeners: 1 out of 761 total

Curitiba Approach: 119.950
Curitiba Ground: 121.900
Curitiba Tower: 118.150
Curitiba Tower: 118.900

SBDN Twr/App (Archives)
Presidente Prudente/Sao Paulo, Brazil

Feed Status: UP
Listen in your browser - HTML5 player(in browser, HTML5)
Click here to listen with your own player(launches your MP3 player)

SBDN 020200Z 00000KT CAVOK 25/15 Q1014

SBDN Flight Activity (Flightaware)

Listeners: 1 out of 761 total

Air-to-Air: 123.450
Curitiba Sector 13: 133.595
Prudente Approach: 118.450
Prudente Tower: 125.450

SBEG Tower/App (Archives)
Manaus, Brazil

Feed Status: UP
Listen in your browser - HTML5 player(in browser, HTML5)
Click here to listen with your own player(launches your MP3 player)

SBEG 020300Z 01002KT 9999 FEW015 SCT040 25/24 Q1012

SBEG Flight Activity (Flightaware)

Listeners: 1 out of 761 total

Emergency/Guard: 121.500
Manaus Approach : 119.250
Manaus Approach: 120.400
Manaus Approach: 119.700
Manaus Tower: 118.300

SBFI Twr/App/Ctr/Misc (Archives)
Foz do Iguacu, Brazil

Feed Status: UP
Listen in your browser - HTML5 player(in browser, HTML5)
Click here to listen with your own player(launches your MP3 player)

SBFI 020300Z 13004KT CAVOK 25/21 Q1012

SBFI Flight Activity (Flightaware)

Listeners: 0 out of 761 total

Asuncion Center (Paraguay): 126.900
Asuncion Center (Paraguay): 128.400
Curitiba Center: 127.200
Curitiba Center: 125.800
Emergency/Guard: 121.500
Foz do Iguacu Approach/Departure: 120.300
Foz do Iguacu Approach/Departure: 119.150
Foz do Iguacu Tower: 118.800
Guarani Approach (Paraguay): 119.300
Puerto Iguazu - Cataratas Tower (Argentina) : 120.700
Resistencia Center (Argentina): 124.300
UNICOM: 123.450

SBFZ ACC/Misc (Archives)
Fortaleza, Brazil

Feed Status: UP
Listen in your browser - HTML5 player(in browser, HTML5)
Click here to listen with your own player(launches your MP3 player)

SBFZ 020300Z 17003KT 9999 FEW018 27/24 Q1011

SBFZ Flight Activity (Flightaware)

Listeners: 0 out of 761 total

:
Ait to Air: 123.450
SBAC: 131.250
SBJE: 131.050
SBJU: 131.750
SBMS: 125.800
SBPB: 126.600
SBRF ACC: 133.500
SBRF ACC: 135.250
SBRF ACC: 126.350
SBRF ACC: 125.150

SBFZ Twr/App/Center (Archives)
Fortaleza, Brazil

Feed Status: UP
Listen in your browser - HTML5 player(in browser, HTML5)
Click here to listen with your own player(launches your MP3 player)

SBFZ 020300Z 17003KT 9999 FEW018 27/24 Q1011

SBFZ Flight Activity (Flightaware)

Listeners: 7 out of 761 total

ACC-RE (Fortaleza Sector): 125.150
ACC-RE (Fortaleza Sector): 126.350
ACC-RE (Fortaleza Sector): 135.250
Fortaleza Approach: 133.000
Fortaleza Tower: 129.000

SBGO Gnd/Twr/App (Archives)
Goiania, Brazil

Feed Status: UP
Listen in your browser - HTML5 player(in browser, HTML5)
Click here to listen with your own player(launches your MP3 player)

SBGO 020300Z 00000KT 9999 FEW040 23/20 Q1017

SBGO Flight Activity (Flightaware)

Listeners: 0 out of 761 total

Anapolis Approach: 119.150
Anapolis Approach: 120.550
Anapolis Approach: 133.000
Anapolis Approach: 129.450
Emergency/Guard: 121.500
Goiania Ground: 121.700
Goiania Tower: 118.700
Goiania Tower: 121.050

SBJP Twr/Control/Airlines
Joao Pessoa, Brazil

Feed Status: DOWN
Offline since: 2020-04-01 23:22:06 UTC

SBJP 020300Z 19006KT 9999 FEW020 SCT070 25/25 Q1013

AZUL: 130.900
GOL: 131.225
Joao Pessoa Tower: 118.300
Recife Control: 119.500
TAM: 130.500

SBJU Tower/Center (Archives)
Juazeiro do Norte, Brazil

Feed Status: UP
Listen in your browser - HTML5 player(in browser, HTML5)
Click here to listen with your own player(launches your MP3 player)

SBJU 020000Z 00000KT 9999 FEW020 26/23 Q1017

SBJU Flight Activity (Flightaware)

Listeners: 0 out of 761 total

Pilot-to-Pilot: 123.450
Radio Juazeiro: 131.750
Recife Center: 135.250
Recife Center: 125.150

SBKP Approach (Archives)
Campinas, Brazil

Feed Status: UP
Listen in your browser - HTML5 player(in browser, HTML5)
Click here to listen with your own player(launches your MP3 player)

SBKP 020300Z 12011KT CAVOK 21/18 Q1017

SBKP Flight Activity (Flightaware)

Listeners: 0 out of 761 total

Campinas Approach: 132.100
Campinas Approach: 135.750

SBKP Tower #1
Campinas, Brazil

Feed Status: DOWN
Offline since: 2020-04-01 19:20:40 UTC

SBKP 020300Z 12011KT CAVOK 21/18 Q1017

Campinas Tower: 118.250

SBKP Tower #2 (Archives)
Campinas, Brazil

Feed Status: UP
Listen in your browser - HTML5 player(in browser, HTML5)
Click here to listen with your own player(launches your MP3 player)

SBKP 020300Z 12011KT CAVOK 21/18 Q1017

SBKP Flight Activity (Flightaware)

Listeners: 0 out of 761 total

Campinas Tower: 118.250

SBLO Gnd/Twr/App
Londrina, Brazil

Feed Status: DOWN
Offline since: 2020-03-10 19:18:40 UTC

SBLO 012300Z 07005KT CAVOK 29/16 Q1015

Londrina Approach: 129.700
Londrina Ground: 119.550
Londrina Tower: 118.400

SBMG Twr/App/Misc (Archives)
Maringa, Brazil

Feed Status: UP
Listen in your browser - HTML5 player(in browser, HTML5)
Click here to listen with your own player(launches your MP3 player)

SBMG 012100Z 18003KT CAVOK 30/20 Q1014

SBMG Flight Activity (Flightaware)

Listeners: 1 out of 761 total

Air to Air: 123.450
Londrina Approach: 129.700
Maringa Tower: 118.750

SBMK RDO/Center (Archives)
Montes Claros, Brazil

Feed Status: UP
Listen in your browser - HTML5 player(in browser, HTML5)
Click here to listen with your own player(launches your MP3 player)

SBMK Flight Activity (Flightaware)

Listeners: 0 out of 761 total

Brasilia Center (Sector 15): 127.300
Montes Claros RDO: 131.700

SBMQ Tower/App/Center (Archives)
Macapa, Brazil

Feed Status: UP
Listen in your browser - HTML5 player(in browser, HTML5)
Click here to listen with your own player(launches your MP3 player)

SBMQ 020300Z 09010KT 9999 FEW010 28/27 Q1012

SBMQ Flight Activity (Flightaware)

Listeners: 0 out of 761 total

Amazonico Center: 123.950
Amazonico Center: 128.000
Macapa Approach: 119.000
Macapa Tower: 118.000

SBNF Tower
Navegantes, Brazil

Feed Status: DOWN
Offline since: 2020-03-31 00:16:40 UTC

SBNF 020300Z 04010KT 9999 SCT020 25/22 Q1014

Navegantes Tower: 118.200

SBPL RDO (Archives)
Petrolina, Brazil

Feed Status: UP
Listen in your browser - HTML5 player(in browser, HTML5)
Click here to listen with your own player(launches your MP3 player)

SBPL 020035Z 09004KT 9999 FEW025 25/23 Q1015

SBPL Flight Activity (Flightaware)

Listeners: 0 out of 761 total

Petrolina RDO: 125.700

SBRF App 129.60
Recife, Brazil

Feed Status: DOWN
Offline since: 2020-03-31 19:11:06 UTC

SBRF 020300Z 22004KT 9999 BKN020 26/24 Q1013

Recife Approach: 129.600

SBRF Gol Ops
Recife, Brazil

Feed Status: DOWN
Offline since: 2020-03-31 19:10:40 UTC

SBRF 020300Z 22004KT 9999 BKN020 26/24 Q1013

Gol Ops: 131.225

SBRF Ground
Recife, Brazil

Feed Status: DOWN
Offline since: 2020-03-31 19:10:40 UTC

SBRF 020300Z 22004KT 9999 BKN020 26/24 Q1013

Recife Ground: 121.850

SBRF LATAM Ops
Recife, Brazil

Feed Status: DOWN
Offline since: 2020-03-31 19:11:06 UTC

SBRF 020300Z 22004KT 9999 BKN020 26/24 Q1013

LATAM Ops: 130.500

SBRF Recife ACC
Recife, Brazil

Feed Status: DOWN
Offline since: 2020-03-31 19:11:06 UTC

SBRF 020300Z 22004KT 9999 BKN020 26/24 Q1013

Recife Center: 128.700
Recife Center: 133.650
Recife Center: 134.800

SBRF Tower
Recife, Brazil

Feed Status: DOWN
Offline since: 2020-03-31 19:11:06 UTC

SBRF 020300Z 22004KT 9999 BKN020 26/24 Q1013

Recife Tower: 125.250
Recife Tower: 118.350
Recife Tower: 118.900

SBRP Tower/Center (Archives)
Ribeirao Preto, Brazil

Feed Status: UP
Listen in your browser - HTML5 player(in browser, HTML5)
Click here to listen with your own player(launches your MP3 player)

SBRP 020300Z VRB02KT CAVOK 23/20 Q1015

SBRP Flight Activity (Flightaware)

Listeners: 2 out of 761 total

Leite Lopes Tower: 118.000
Pirassununga Center (North): 119.550

SBSL Tower (Archives)
Sao Luis, Brazil

Feed Status: UP
Listen in your browser - HTML5 player(in browser, HTML5)
Click here to listen with your own player(launches your MP3 player)

SBSL 020300Z 06001KT CAVOK 26/25 Q1012

SBSL Flight Activity (Flightaware)

Listeners: 0 out of 761 total

Sao Luis Tower: 118.900

SBSN Twr/App/ACC (Archives)
Santarem, Brazil

Feed Status: UP
Listen in your browser - HTML5 player(in browser, HTML5)
Click here to listen with your own player(launches your MP3 player)

SBSN 020300Z 19002KT 9999 FEW016 SCT100 25/24 Q1011

SBSN Flight Activity (Flightaware)

Listeners: 0 out of 761 total

Brasilia Center/ACC: 123.650
Brasilia Center/ACC: 125.050
Santarem Approach: 119.300
Santarem Tower: 118.100

SBSR AFIS/App/Center (Archives)
Sao Jose do Rio Preto, Brazil

Feed Status: UP
Listen in your browser - HTML5 player(in browser, HTML5)
Click here to listen with your own player(launches your MP3 player)

SBSR 020200Z 17004KT CAVOK 27/19 Q1015

SBSR Flight Activity (Flightaware)

Listeners: 0 out of 761 total

Academia Approach (North Sector): 119.750
Academia Approach (North Sector): 120.400
Brasilia Center: 135.150
Rio Preto Radio AFIS: 130.850

SBTE Twr/App (Archives)
Teresina, Brazil

Feed Status: UP
Listen in your browser - HTML5 player(in browser, HTML5)
Click here to listen with your own player(launches your MP3 player)

SBTE 020300Z 00000KT CAVOK 25/24 Q1012

SBTE Flight Activity (Flightaware)

Listeners: 0 out of 761 total

Teresina Approach: 119.600
Teresina Tower: 118.800

SBRE Recife ACC (Archives)
Paulo Afonso, Brazil

Feed Status: UP
Listen in your browser - HTML5 player(in browser, HTML5)
Click here to listen with your own player(launches your MP3 player)

SBRE Flight Activity (Flightaware)

Listeners: 0 out of 761 total

Recife Center (ACC): 125.400
Recife Center (ACC): 125.450
Recife Center (ACC): 126.850
Recife Center (ACC): 133.650
Recife Center (ACC): 134.500
Recife Center (ACC): 134.900

SBUF AFIS/Center (Archives)
Paulo Afonso, Brazil

Feed Status: UP
Listen in your browser - HTML5 player(in browser, HTML5)
Click here to listen with your own player(launches your MP3 player)

SBUF 011900Z 03005KT 9999 SCT018 BKN070 26/25 Q1012 RERA

SBUF Flight Activity (Flightaware)

Listeners: 0 out of 761 total

Paulo Afonso Radio: 125.850
Recife Center: 133.650
Recife Center: 134.500
Recife Center: 125.450

SBQV AFIS (Archives)
Vitoria da Conquista, Brazil

Feed Status: UP
Listen in your browser - HTML5 player(in browser, HTML5)
Click here to listen with your own player(launches your MP3 player)

SBQV Flight Activity (Flightaware)

Listeners: 0 out of 761 total

Conquista AFIS: 130.850
Despacho Azul: 131.875
Despacho Passaredo: 132.000

SBVT Gnd/Twr/App (Archives)
Vitoria, Brazil

Feed Status: UP
Listen in your browser - HTML5 player(in browser, HTML5)
Click here to listen with your own player(launches your MP3 player)

SBVT 020200Z 29003KT 9999 SCT009 BKN015 OVC050 24/24 Q1016

SBVT Flight Activity (Flightaware)

Listeners: 0 out of 761 total

SBVT Approach: 119.850
SBVT Ground: 121.950
SBVT Tower: 118.100

SCEL Gnd/Twr/Radar (Archives)
Santiago, Chile

Feed Status: UP
Listen in your browser - HTML5 player(in browser, HTML5)
Click here to listen with your own player(launches your MP3 player)

SCEL 020200Z 17011KT CAVOK 20/04 Q1016 NOSIG

SCEL Flight Activity (Flightaware)

Listeners: 0 out of 761 total

Santiago Authorizations: 121.700
Santiago Control (Lat 3323S North): 128.100
Santiago Control (Lat 3323S South): 126.300
Santiago Ground (Primary): 122.200
Santiago Ground (Secondary): 122.500
Santiago Radar: 125.400
Santiago Radar: 135.400
Santiago Radar (Arrival, Primary): 129.700
Santiago Radar (Arrival, Secondary): 119.700
Santiago Radar (Arrival, Secondary): 123.800
Santiago Radar (Departure, Primary): 121.100
Santiago Radar (Departure, Secondary): 123.800
Santiago Radar (Information, Primary): 122.400
Santiago Radar (Information, Secondary): 120.800
Santiago Radar (Information, Secondary): 123.800
Santiago Tower (Primary): 118.100
Santiago Tower (Secondary): 118.350
SCTB Tobalaba Tower: 118.700

SEGU App/Dep/Info (Archives)
Guayaquil, Ecuador

Feed Status: UP
Listen in your browser - HTML5 player(in browser, HTML5)
Click here to listen with your own player(launches your MP3 player)

SEGU 020300Z 20004KT 9999 SCT030 BKN100 28/24 Q1011 NOSIG RMK A2987

SEGU Flight Activity (Flightaware)

Listeners: 0 out of 761 total

Guayaquil Approach: 120.700
Guayaquil Approach (Secondary): 119.300
Guayaquil Info: 126.900

SEGU Gnd/Twr (Archives)
Guayaquil, Ecuador

Feed Status: UP
Listen in your browser - HTML5 player(in browser, HTML5)
Click here to listen with your own player(launches your MP3 player)

SEGU 020300Z 20004KT 9999 SCT030 BKN100 28/24 Q1011 NOSIG RMK A2987

SEGU Flight Activity (Flightaware)

Listeners: 0 out of 761 total

Guayaquil Ground: 121.900
Guayaquil Ground (Secondary): 121.700
Guayaquil Tower: 118.300
Guayaquil Tower (Secondary): 118.900

SEGU Gnd/Twr/App (Archives)
Guayaquil, Ecuador

Feed Status: UP
Listen in your browser - HTML5 player(in browser, HTML5)
Click here to listen with your own player(launches your MP3 player)

SEGU 020300Z 20004KT 9999 SCT030 BKN100 28/24 Q1011 NOSIG RMK A2987

SEGU Flight Activity (Flightaware)

Listeners: 1 out of 761 total

Guayaquil Approach: 120.700
Guayaquil Ground: 121.900
Guayaquil Tower: 118.300

SEGU Guayaquil Center (Archives)
Guayaquil, Ecuador

Feed Status: UP
Listen in your browser - HTML5 player(in browser, HTML5)
Click here to listen with your own player(launches your MP3 player)

SEGU 020300Z 20004KT 9999 SCT030 BKN100 28/24 Q1011 NOSIG RMK A2987

SEGU Flight Activity (Flightaware)

Listeners: 0 out of 761 total

Guayaquil Center: 127.950
Guayaquil Center: 128.300
Guayaquil Center (Secondary): 128.000
Guayaquil Center (Secondary): 123.900

SEQM ATIS (Archives)
Quito, Ecuador

Feed Status: UP
Listen in your browser - HTML5 player(in browser, HTML5)
Click here to listen with your own player(launches your MP3 player)

SEQM 020300Z 36004KT 9999 FEW005 BKN020 14/12 Q1028 NOSIG RMK A3036

SEQM Flight Activity (Flightaware)

Listeners: 0 out of 761 total

Quito ATIS: 118.700

SEQM Gnd/Twr/App (Archives)
Quito, Ecuador

Feed Status: UP
Listen in your browser - HTML5 player(in browser, HTML5)
Click here to listen with your own player(launches your MP3 player)

SEQM 020300Z 36004KT 9999 FEW005 BKN020 14/12 Q1028 NOSIG RMK A3036

SEQM Flight Activity (Flightaware)

Listeners: 0 out of 761 total

Quito Approach/Departure: 119.700
Quito Approach/Departure: 121.200
Quito Ground: 121.900
Quito Tower: 118.100
Quito Tower (Secondary): 118.350

SEQM Tower (Archives)
Quito, Ecuador

Feed Status: UP
Listen in your browser - HTML5 player(in browser, HTML5)
Click here to listen with your own player(launches your MP3 player)

SEQM 020300Z 36004KT 9999 FEW005 BKN020 14/12 Q1028 NOSIG RMK A3036

SEQM Flight Activity (Flightaware)

Listeners: 0 out of 761 total

Quito Tower: 118.100
Quito Tower (Secondary): 118.350

SJOY CTAF (Archives)
Palmeira, Brazil

Feed Status: UP
Listen in your browser - HTML5 player(in browser, HTML5)
Click here to listen with your own player(launches your MP3 player)

AUTO METAR SJOY 020300Z 04009KT OVC005 18/17 Q1019

SJOY Flight Activity (Flightaware)

Listeners: 0 out of 761 total


SKBO Del/Gnd/Twr/App
Bogota, Colombia

Feed Status: DOWN
Offline since: 2020-03-27 23:09:40 UTC

SKBO 020300Z 25005KT 9999 SCT017 SCT080 13/11 A3036 NOSIG

Bogota Approach: 119.500
Bogota Clearance Delivery: 121.600
Bogota Departure (North): 121.300
Bogota Departure (South): 119.650
Bogota Ground (North): 121.800
Bogota Ground (South): 122.750
Bogota Information: 126.900
Bogota Tower (North): 118.100
Bogota Tower (South): 118.250
Guaymaral Ground: 121.700
Guaymaral Tower: 118.800

SKBQ Approach (Archives)
Barranquilla, Colombia

Feed Status: UP
Listen in your browser - HTML5 player(in browser, HTML5)
Click here to listen with your own player(launches your MP3 player)

SKBQ 020300Z 36009KT 320V030 CAVOK 27/23 A2987 NOSIG

SKBQ Flight Activity (Flightaware)

Listeners: 0 out of 761 total

Barranquilla Approach/Departure: 119.100

SKRG Gnd/Twr/App
Rionegro, Colombia

Feed Status: DOWN
Offline since: 2020-03-25 03:06:40 UTC

SKRG 020300Z VRB02KT 9999 SCT008 SCT080 16/14 A3032 NOSIG

Jose Maria Cordova Ground: 121.900
Jose Maria Cordova Tower: 118.600
Medellin Approach (South): 121.100

SPJC Approach (Archives)
Lima, Peru

Feed Status: UP
Listen in your browser - HTML5 player(in browser, HTML5)
Click here to listen with your own player(launches your MP3 player)

SPJC 020300Z 18006KT CAVOK 23/19 Q1013 NOSIG RMK PP000

SPJC Flight Activity (Flightaware)

Listeners: 1 out of 761 total

Lima Approach: 119.700

SPJC Ground (Archives)
Lima, Peru

Feed Status: UP
Listen in your browser - HTML5 player(in browser, HTML5)
Click here to listen with your own player(launches your MP3 player)

SPJC 020300Z 18006KT CAVOK 23/19 Q1013 NOSIG RMK PP000

SPJC Flight Activity (Flightaware)

Listeners: 1 out of 761 total

Lima Ground: 121.900

SPJC Tower (Archives)
Lima, Peru

Feed Status: UP
Listen in your browser - HTML5 player(in browser, HTML5)
Click here to listen with your own player(launches your MP3 player)

SPJC 020300Z 18006KT CAVOK 23/19 Q1013 NOSIG RMK PP000

SPJC Flight Activity (Flightaware)

Listeners: 2 out of 761 total

Lima Tower: 118.100

SPST Tower (Archives)
Tarapoto, Peru

Feed Status: UP
Listen in your browser - HTML5 player(in browser, HTML5)
Click here to listen with your own player(launches your MP3 player)

SPST 012100Z 06003KT 8000 VCSH SCT010 SCT015 BKN070 25/23 Q1011 RMK BIRD HAZARD RWY 17/35 TX32.0 PP030

SPST Flight Activity (Flightaware)

Listeners: 1 out of 761 total

Tarapoto Tower: 118.400

SSBL Air to Air
Blumenau, Brazil

Feed Status: DOWN
Offline since: 2020-04-02 03:15:06 UTC

Air to Air: 123.450

SULS Tower (Archives)
Punta del Este, Uruguay

Feed Status: UP
Listen in your browser - HTML5 player(in browser, HTML5)
Click here to listen with your own player(launches your MP3 player)

SULS 020300Z 00000KT 9999 -RA BKN020 FEW040CB OVC070 21/10 Q1010

SULS Flight Activity (Flightaware)

Listeners: 0 out of 761 total

Air to Air: 123.450
SULS A/G: 122.100
SULS Tower: 118.300

SUMU Twr/App (Archives)
Montevideo, Uruguay

Feed Status: UP
Listen in your browser - HTML5 player(in browser, HTML5)
Click here to listen with your own player(launches your MP3 player)

SUMU 020300Z 28013KT 8000 FEW008 SCT070 20/19 Q1010 TEMPO 5000 RABR

SUMU Flight Activity (Flightaware)

Listeners: 0 out of 761 total

SUMU Approach: 119.200
SUMU Tower: 118.100

SUMU Twr/App/Radar (Archives)
Montevideo, Uruguay

Feed Status: UP
Listen in your browser - HTML5 player(in browser, HTML5)
Click here to listen with your own player(launches your MP3 player)

SUMU 020300Z 28013KT 8000 FEW008 SCT070 20/19 Q1010 TEMPO 5000 RABR

SUMU Flight Activity (Flightaware)

Listeners: 0 out of 761 total

SUMU Approach: 120.200
SUMU Approach: 119.200
SUMU Info: 121.800
SUMU Informacion: 121.800
SUMU Radar Control: 128.500
SUMU Radar Control: 126.300
SUMU Radar Control: 128.000
SUMU Tower: 118.100

SUPE CTAF (Archives)
Punta del Este, Uruguay

Feed Status: UP
Listen in your browser - HTML5 player(in browser, HTML5)
Click here to listen with your own player(launches your MP3 player)

SULS 020300Z 00000KT 9999 -RA BKN020 FEW040CB OVC070 21/10 Q1010

SULS Flight Activity (Flightaware)

Listeners: 0 out of 761 total

SUPE CTAF: 118.700

SUPU/SUPC Misc (Archives)
Paysandu, Uruguay

Feed Status: UP
Listen in your browser - HTML5 player(in browser, HTML5)
Click here to listen with your own player(launches your MP3 player)

SUPU 040900Z 10005KT 9999 FEW020TCU BKN070 FEW200 23/23 Q1010

SUPU Flight Activity (Flightaware)

Listeners: 0 out of 761 total

Chalkling Tower: 118.700
Paysandu Tower: 118.200

SVBC Gnd/Twr/App
Barcelona, Venezuela

Feed Status: DOWN
Offline since: 2020-03-17 04:09:06 UTC

SVBC 011802Z AUTO 34014KT NCD 30/20 Q1011

Barcelona Approach: 121.100
Barcelona Ground: 121.900
Barcelona Tower: 118.700
Emergency/Guard: 121.500
SAR: 123.100

SVPR Twr/App/FIR (Archives)
Ciudad Guayana, Venezuela

Feed Status: UP
Listen in your browser - HTML5 player(in browser, HTML5)
Click here to listen with your own player(launches your MP3 player)

SVPR Flight Activity (Flightaware)

Listeners: 0 out of 761 total

Emergency/Guard: 121.500
FIR 6: 126.000
Guayana Approach (Primary): 119.500
Guayana Approach (Secondary): 120.300
Guayana Tower (Primary): 118.000
Guayana Tower (Secondary): 123.500
SMC: 121.900

SVVA Gnd/Twr/App (Archives)
Valencia, Venezuela

Feed Status: UP
Listen in your browser - HTML5 player(in browser, HTML5)
Click here to listen with your own player(launches your MP3 player)

SVVA 011900Z /////KT 9999 BKN016 32/20 Q1012

SVVA Flight Activity (Flightaware)

Listeners: 0 out of 761 total

Libertador Approach: 119.300
Valencia Ground: 121.900
Valencia Tower: 121.200

TNCA Twr/Apron/FIR (Archives)
Oranjestad, Aruba

Feed Status: UP
Listen in your browser - HTML5 player(in browser, HTML5)
Click here to listen with your own player(launches your MP3 player)

TNCA 020200Z 09014KT 9999 FEW020 27/22 Q1011 NOSIG

TNCA Flight Activity (Flightaware)

Listeners: 0 out of 761 total

Beatrix Ground (Apron): 121.600
Beatrix Tower: 120.900
Beatrix Tower (secondary): 118.000
Curacao Control: 127.100
Emergency/Guard: 121.500
Search/Rescue: 123.100

TNCB Tower (Archives)
Kralendijk, Bonaire

Feed Status: UP
Listen in your browser - HTML5 player(in browser, HTML5)
Click here to listen with your own player(launches your MP3 player)

TNCB 020155Z AUTO 09010KT 050V120 9999 NCD 26/21 Q1012

TNCB Flight Activity (Flightaware)

Listeners: 0 out of 761 total

Bonaire Tower: 118.700

TNCC Curacao Control (Archives)
Willemstad, Curacao

Feed Status: UP
Listen in your browser - HTML5 player(in browser, HTML5)
Click here to listen with your own player(launches your MP3 player)

TNCC 020200Z 11011KT 9999 FEW018 27/21 Q1012 NOSIG=

TNCC Flight Activity (Flightaware)

Listeners: 0 out of 761 total

Curacao Control: 124.100
Curacao Control: 127.100

TNCC Tower/Radar (Archives)
Willemstad, Curacao

Feed Status: UP
Listen in your browser - HTML5 player(in browser, HTML5)
Click here to listen with your own player(launches your MP3 player)

TNCC 020200Z 11011KT 9999 FEW018 27/21 Q1012 NOSIG=

TNCC Flight Activity (Flightaware)

Listeners: 0 out of 761 total

Hato Radar: 119.600
Hato Tower: 118.300

TNCC Twr/Radar/Control (Archives)
Willemstad, Curacao

Feed Status: UP
Listen in your browser - HTML5 player(in browser, HTML5)
Click here to listen with your own player(launches your MP3 player)

TNCC 020200Z 11011KT 9999 FEW018 27/21 Q1012 NOSIG=

TNCC Flight Activity (Flightaware)

Listeners: 0 out of 761 total

Curacao Control: 127.100
Hato Radar: 119.600
Hato Tower: 118.300

TNCE Info (Archives)
Oranjestad, Sint Eustatius

Feed Status: UP
Listen in your browser - HTML5 player(in browser, HTML5)
Click here to listen with your own player(launches your MP3 player)

TNCE 020155Z AUTO 09006KT 050V130 //// // ///////// 25/20 Q1014 RE//

TNCE Flight Activity (Flightaware)

Listeners: 0 out of 761 total

Statia Info: 118.100

TTCP Gnd/Twr/App (Archives)
Scarborough, Trinidad and Tobago

Feed Status: UP
Listen in your browser - HTML5 player(in browser, HTML5)
Click here to listen with your own player(launches your MP3 player)

TTCP 020200Z 08004KT 9999 FEW018 25/19 Q1013 NOSIG

TTCP Flight Activity (Flightaware)

Listeners: 0 out of 761 total

Piarco Approach: 119.000
Robinson Ground: 121.700
Robinson Tower: 118.400

TTPP Apron/Gnd/Twr (Archives)
Port of Spain, Trinidad and Tobago

Feed Status: UP
Listen in your browser - HTML5 player(in browser, HTML5)
Click here to listen with your own player(launches your MP3 player)

TTPP 020200Z 11004KT 9999 1500SE FU FEW018 25/20 Q1012 NOSIG

TTPP Flight Activity (Flightaware)

Listeners: 1 out of 761 total

Piarco Apron: 121.750
Piarco Ground: 121.900
Piarco Tower: 118.100

TTPP Piarco Approach (Archives)
Port of Spain, Trinidad and Tobago

Feed Status: UP
Listen in your browser - HTML5 player(in browser, HTML5)
Click here to listen with your own player(launches your MP3 player)

TTPP 020200Z 11004KT 9999 1500SE FU FEW018 25/20 Q1012 NOSIG

TTPP Flight Activity (Flightaware)

Listeners: 1 out of 761 total

Piarco Approach: 119.550
Piarco Approach: 119.000
Piarco Approach (backup): 124.000

TTPP Piarco Center (Archives)
Port of Spain, Trinidad and Tobago

Feed Status: UP
Listen in your browser - HTML5 player(in browser, HTML5)
Click here to listen with your own player(launches your MP3 player)

TTPP 020200Z 11004KT 9999 1500SE FU FEW018 25/20 Q1012 NOSIG

TTPP Flight Activity (Flightaware)

Listeners: 0 out of 761 total

Piarco Center: 123.700
Piarco Center (Oceanic): 126.500
Piarco Center (South Sector): 125.400
Piarco Center Oceanic (Backup): 133.100